Time;durP1;ratioP1;P1;durP2;ratioP2;P2;SDS_P1;SDS_P2;PMS_P1;PMS_P2;Temp;Humidity;BMP_temperature;BMP_pressure;BME280_temperature;BME280_humidity;BME280_pressure;Samples;Min_cycle;Max_cycle;Signal;HPM_P1;HPM_P2
2021/07/29 00:00:48;;;;;;;1.95;1.35;;;22.00;61.70;;;;;;4959645;28;20557;-86
2021/07/29 00:03:14;;;;;;;1.73;1.30;;;21.90;61.70;;;;;;4960102;28;20427;-86
2021/07/29 00:05:40;;;;;;;1.73;1.23;;;21.90;61.70;;;;;;4976388;28;20038;-85
2021/07/29 00:08:06;;;;;;;1.52;1.30;;;21.90;61.70;;;;;;4959945;28;20038;-85
2021/07/29 00:10:32;;;;;;;2.78;1.45;;;21.80;61.70;;;;;;4959803;28;20027;-85
2021/07/29 00:12:58;;;;;;;2.10;1.33;;;21.80;61.70;;;;;;4959729;28;20026;-86
2021/07/29 00:15:24;;;;;;;1.73;1.30;;;21.80;61.70;;;;;;4959626;28;20542;-88
2021/07/29 00:20:20;;;;;;;2.08;1.30;;;21.70;61.70;;;;;;4976372;28;20030;-86
2021/07/29 00:22:52;;;;;;;2.38;1.55;;;21.70;61.80;;;;;;4975580;28;20035;-86
2021/07/29 00:25:22;;;;;;;1.88;1.20;;;21.60;61.70;;;;;;4960142;28;20122;-86
2021/07/29 00:27:48;;;;;;;2.05;1.38;;;21.70;61.80;;;;;;4959300;28;20038;-86
2021/07/29 00:30:15;;;;;;;1.25;1.15;;;21.60;61.80;;;;;;4958948;28;20034;-85
2021/07/29 00:32:42;;;;;;;1.88;1.10;;;21.60;61.80;;;;;;4959468;28;20026;-87
2021/07/29 00:35:14;;;;;;;1.75;1.30;;;21.60;61.90;;;;;;4959328;28;20034;-86
2021/07/29 00:37:52;;;;;;;1.40;1.10;;;21.50;61.90;;;;;;4959436;28;20038;-86
2021/07/29 00:40:22;;;;;;;1.40;1.10;;;21.50;61.90;;;;;;4974880;28;20085;-87
2021/07/29 00:42:48;;;;;;;1.45;1.20;;;21.50;61.90;;;;;;4975453;28;20033;-87
2021/07/29 00:45:15;;;;;;;1.23;1.13;;;21.50;61.90;;;;;;4959369;28;20038;-85
2021/07/29 00:47:42;;;;;;;1.30;1.20;;;21.40;61.90;;;;;;4975006;28;20054;-86
2021/07/29 00:50:10;;;;;;;2.08;1.20;;;21.40;62.00;;;;;;4959255;28;20030;-86
2021/07/29 00:52:36;;;;;;;1.45;1.17;;;21.40;62.00;;;;;;4943263;28;20078;-86
2021/07/29 00:55:03;;;;;;;2.33;1.40;;;21.40;61.90;;;;;;4942937;28;20031;-85
2021/07/29 00:57:28;;;;;;;2.40;1.23;;;21.40;62.00;;;;;;4958793;28;20038;-85
2021/07/29 00:59:55;;;;;;;1.40;1.17;;;21.30;61.90;;;;;;4959604;28;20539;-86
2021/07/29 01:02:23;;;;;;;2.03;1.10;;;21.40;62.00;;;;;;4942746;28;20037;-86
2021/07/29 01:04:49;;;;;;;1.77;1.23;;;21.30;62.00;;;;;;4959401;28;20027;-86
2021/07/29 01:07:15;;;;;;;1.42;1.27;;;21.30;62.00;;;;;;4942954;28;20042;-86
2021/07/29 01:09:41;;;;;;;2.17;1.20;;;21.20;62.00;;;;;;4959187;28;20379;-86
2021/07/29 01:12:07;;;;;;;1.83;1.23;;;21.20;62.00;;;;;;4974854;28;20038;-85
2021/07/29 01:14:33;;;;;;;1.40;1.10;;;21.30;62.10;;;;;;4959392;28;20197;-86
2021/07/29 01:16:59;;;;;;;2.78;1.25;;;21.20;62.10;;;;;;4958779;28;20468;-86
2021/07/29 01:19:26;;;;;;;1.20;1.10;;;21.20;62.10;;;;;;4958718;28;20086;-86
2021/07/29 01:21:54;;;;;;;1.20;1.10;;;21.20;62.10;;;;;;4958729;28;20038;-85
2021/07/29 01:24:23;;;;;;;2.22;1.27;;;21.20;62.10;;;;;;4942349;28;20114;-85
2021/07/29 01:26:49;;;;;;;1.30;1.00;;;21.10;62.10;;;;;;4958437;28;20164;-85
2021/07/29 01:29:15;;;;;;;1.13;1.02;;;21.10;62.10;;;;;;4942022;28;20125;-87
2021/07/29 01:31:40;;;;;;;2.30;1.17;;;21.10;62.10;;;;;;4958884;28;20043;-85
2021/07/29 01:34:06;;;;;;;1.73;1.15;;;21.00;62.10;;;;;;4974325;28;20066;-87
2021/07/29 01:36:32;;;;;;;2.08;1.27;;;21.00;62.10;;;;;;4958260;28;20067;-86
2021/07/29 01:38:58;;;;;;;1.77;1.00;;;21.00;62.10;;;;;;4958380;28;20113;-85
2021/07/29 01:41:24;;;;;;;1.17;1.08;;;21.00;62.20;;;;;;4958674;28;20126;-86
2021/07/29 01:43:50;;;;;;;1.65;1.30;;;21.00;62.20;;;;;;4978182;28;20477;-86
2021/07/29 01:46:16;;;;;;;1.33;0.98;;;21.00;62.20;;;;;;4962963;28;20066;-86
2021/07/29 01:48:42;;;;;;;2.25;1.10;;;20.90;62.20;;;;;;4962071;28;20039;-86
2021/07/29 01:51:07;;;;;;;1.00;0.90;;;20.90;62.20;;;;;;4979878;28;20408;-86
2021/07/29 01:53:33;;;;;;;1.20;1.10;;;20.90;62.20;;;;;;4945685;28;20030;-86
2021/07/29 01:55:59;;;;;;;2.10;1.30;;;20.90;62.40;;;;;;4946520;28;20388;-86
2021/07/29 01:58:25;;;;;;;1.27;0.98;;;20.80;62.20;;;;;;4978349;28;20367;-86
2021/07/29 02:00:53;;;;;;;0.90;0.90;;;20.80;62.30;;;;;;4962344;28;20031;-86
2021/07/29 02:03:19;;;;;;;1.65;1.08;;;20.80;62.30;;;;;;4961954;28;20027;-86
2021/07/29 02:05:47;;;;;;;1.70;1.20;;;20.80;62.40;;;;;;4977955;28;20033;-86
2021/07/29 02:08:12;;;;;;;1.35;1.02;;;20.80;62.40;;;;;;4961506;28;20066;-87
2021/07/29 02:10:38;;;;;;;1.10;1.00;;;20.80;62.40;;;;;;4978103;28;20066;-86
2021/07/29 02:13:04;;;;;;;2.05;1.38;;;20.80;62.40;;;;;;4977988;28;20467;-85
2021/07/29 02:15:30;;;;;;;1.40;1.00;;;20.70;62.40;;;;;;4961548;28;20031;-86
2021/07/29 02:17:57;;;;;;;1.25;0.90;;;20.70;62.50;;;;;;4977941;28;20038;-85
2021/07/29 02:20:24;;;;;;;2.00;1.10;;;20.60;62.40;;;;;;4961570;28;20071;-85
2021/07/29 02:22:50;;;;;;;1.30;1.02;;;20.70;62.50;;;;;;4977955;28;20472;-86
2021/07/29 02:25:16;;;;;;;2.33;1.10;;;20.60;62.50;;;;;;4962047;28;20117;-86
2021/07/29 02:27:42;;;;;;;1.27;1.10;;;20.60;62.60;;;;;;4962277;28;20463;-86
2021/07/29 02:30:08;;;;;;;1.30;1.20;;;20.60;62.60;;;;;;4977402;28;20125;-86
2021/07/29 02:32:35;;;;;;;1.33;1.02;;;20.60;62.60;;;;;;4961792;28;20031;-85
2021/07/29 02:35:00;;;;;;;1.15;1.00;;;20.60;62.60;;;;;;4963979;28;20034;-87
2021/07/29 02:37:26;;;;;;;1.40;1.02;;;20.60;62.60;;;;;;4947497;28;20035;-86
2021/07/29 02:39:52;;;;;;;1.67;1.20;;;20.50;62.60;;;;;;4977497;28;20078;-87
2021/07/29 02:42:18;;;;;;;1.88;0.90;;;20.50;62.60;;;;;;4978750;28;20114;-87
2021/07/29 02:44:44;;;;;;;1.20;1.10;;;20.50;62.60;;;;;;4977465;28;20093;-86
2021/07/29 02:47:10;;;;;;;1.42;1.00;;;20.50;62.60;;;;;;4961451;28;20035;-86
2021/07/29 02:49:36;;;;;;;1.08;0.98;;;20.50;62.60;;;;;;4977198;28;20058;-85
2021/07/29 02:52:03;;;;;;;0.98;0.93;;;20.50;62.70;;;;;;4977039;28;20038;-86
2021/07/29 02:54:28;;;;;;;1.85;1.13;;;20.40;62.70;;;;;;4960562;28;20110;-86
2021/07/29 02:56:54;;;;;;;1.58;1.25;;;20.40;62.70;;;;;;4977253;28;20162;-86
2021/07/29 02:59:20;;;;;;;1.60;1.10;;;20.40;62.70;;;;;;4962010;28;20364;-86
2021/07/29 03:01:47;;;;;;;0.80;0.80;;;20.40;62.70;;;;;;4945840;28;20023;-86
2021/07/29 03:04:13;;;;;;;2.65;1.10;;;20.40;62.80;;;;;;4945685;28;20027;-85
2021/07/29 03:06:39;;;;;;;1.33;0.90;;;20.40;62.80;;;;;;4961074;28;20369;-86
2021/07/29 03:09:05;;;;;;;1.95;0.93;;;20.30;62.70;;;;;;4976992;28;20047;-85
2021/07/29 03:11:31;;;;;;;1.77;1.00;;;20.30;62.70;;;;;;4961247;28;20046;-85
2021/07/29 03:13:57;;;;;;;1.77;1.10;;;20.30;62.80;;;;;;4961062;28;20027;-85
2021/07/29 03:16:23;;;;;;;1.50;1.00;;;20.30;62.80;;;;;;4961007;28;20037;-87
2021/07/29 03:18:49;;;;;;;2.08;1.10;;;20.30;62.80;;;;;;4960746;28;20101;-86
2021/07/29 03:21:15;;;;;;;1.50;1.00;;;20.30;62.90;;;;;;4963026;28;20035;-86
2021/07/29 03:23:40;;;;;;;2.92;1.48;;;20.20;62.80;;;;;;4954883;28;20031;-85
2021/07/29 03:26:07;;;;;;;2.10;1.13;;;20.20;62.90;;;;;;4961536;28;20034;-86
2021/07/29 03:28:32;;;;;;;2.00;1.08;;;20.20;62.90;;;;;;4961017;28;20174;-86
2021/07/29 03:30:58;;;;;;;2.30;1.20;;;20.20;62.90;;;;;;4960629;28;20114;-86
2021/07/29 03:33:24;;;;;;;1.20;1.10;;;20.20;63.00;;;;;;4960003;28;20517;-85
2021/07/29 03:35:50;;;;;;;2.97;1.10;;;20.10;62.90;;;;;;4960497;28;20026;-85
2021/07/29 03:38:16;;;;;;;1.48;1.10;;;20.10;62.90;;;;;;4960891;28;20129;-84
2021/07/29 03:40:42;;;;;;;2.17;1.05;;;20.10;63.00;;;;;;4960363;28;20038;-85
2021/07/29 03:43:08;;;;;;;2.15;1.20;;;20.10;63.00;;;;;;4960332;28;20027;-85
2021/07/29 03:45:44;;;;;;;2.65;1.38;;;20.10;63.10;;;;;;4960293;28;20542;-85
2021/07/29 03:48:10;;;;;;;2.65;1.33;;;20.10;63.10;;;;;;4977670;28;20131;-86
2021/07/29 03:50:38;;;;;;;2.17;1.10;;;20.10;63.10;;;;;;4960336;28;20526;-86
2021/07/29 03:53:04;;;;;;;2.08;1.08;;;20.10;63.20;;;;;;4959811;28;20034;-86
2021/07/29 03:55:30;;;;;;;1.63;1.17;;;20.10;63.20;;;;;;4961030;28;20106;-86
2021/07/29 03:57:57;;;;;;;1.20;0.93;;;20.00;63.20;;;;;;4960984;28;20440;-84
2021/07/29 04:00:23;;;;;;;1.83;1.10;;;20.00;63.20;;;;;;4976188;28;20107;-86
2021/07/29 04:02:49;;;;;;;2.83;1.50;;;20.00;63.20;;;;;;4960080;28;20027;-85
2021/07/29 04:05:15;;;;;;;1.15;1.05;;;20.00;63.30;;;;;;4959756;28;20022;-86
2021/07/29 04:07:41;;;;;;;3.15;1.17;;;20.00;63.30;;;;;;4978328;28;20034;-85
2021/07/29 04:10:07;;;;;;;2.33;1.20;;;20.00;63.30;;;;;;4965966;28;20035;-86
2021/07/29 04:12:33;;;;;;;1.95;1.35;;;20.00;63.40;;;;;;4965009;28;20031;-86
2021/07/29 04:14:58;;;;;;;1.70;1.08;;;20.00;63.40;;;;;;4966415;28;20019;-87
2021/07/29 04:17:24;;;;;;;1.40;1.00;;;20.00;63.40;;;;;;4963830;28;20042;-85
2021/07/29 04:19:50;;;;;;;1.88;1.08;;;20.00;63.50;;;;;;4961099;28;20027;-85
2021/07/29 04:22:17;;;;;;;3.13;1.48;;;20.00;63.50;;;;;;4975957;28;20066;-85
2021/07/29 04:24:43;;;;;;;2.47;1.05;;;20.00;63.50;;;;;;4976276;28;20419;-86
2021/07/29 04:27:09;;;;;;;1.52;1.20;;;19.90;63.50;;;;;;4976848;28;20101;-84
2021/07/29 04:29:35;;;;;;;1.73;1.20;;;19.90;63.50;;;;;;4945220;28;20027;-85
2021/07/29 04:32:02;;;;;;;2.45;1.20;;;19.90;63.50;;;;;;4960538;28;20515;-86
2021/07/29 04:34:28;;;;;;;1.60;1.10;;;19.90;63.60;;;;;;4943029;28;20022;-85
2021/07/29 04:36:55;;;;;;;2.38;1.20;;;19.90;63.60;;;;;;4959551;28;20077;-85
2021/07/29 04:39:21;;;;;;;2.25;1.30;;;19.90;63.60;;;;;;4959472;28;20062;-86
2021/07/29 04:41:47;;;;;;;1.58;1.15;;;19.90;63.60;;;;;;4975903;28;20105;-86
2021/07/29 04:44:14;;;;;;;1.73;1.20;;;19.90;63.60;;;;;;4959158;28;20177;-86
2021/07/29 04:46:42;;;;;;;1.73;1.10;;;19.90;63.70;;;;;;4942832;28;20038;-86
2021/07/29 04:49:11;;;;;;;1.50;1.10;;;19.90;63.70;;;;;;4959446;28;20039;-85
2021/07/29 04:51:37;;;;;;;2.70;1.30;;;19.90;63.70;;;;;;4959144;28;20133;-85
2021/07/29 04:54:03;;;;;;;2.15;1.10;;;19.90;63.70;;;;;;4959738;28;20045;-86
2021/07/29 04:56:30;;;;;;;3.50;1.40;;;19.90;63.70;;;;;;4975399;28;20037;-86
2021/07/29 04:58:56;;;;;;;2.70;1.10;;;19.90;63.70;;;;;;4959141;28;20038;-86
2021/07/29 05:01:25;;;;;;;2.17;1.30;;;19.90;63.80;;;;;;4975044;28;20062;-85
2021/07/29 05:03:51;;;;;;;1.27;1.10;;;19.90;63.80;;;;;;4975226;28;20122;-85
2021/07/29 05:06:19;;;;;;;2.47;1.10;;;19.90;63.80;;;;;;4959327;28;20061;-86
2021/07/29 05:08:45;;;;;;;2.05;1.02;;;19.80;63.70;;;;;;4977701;28;20043;-86
2021/07/29 05:11:11;;;;;;;2.00;1.25;;;19.80;63.70;;;;;;4960492;28;20031;-87
2021/07/29 05:13:37;;;;;;;3.78;1.40;;;19.80;63.80;;;;;;4959494;28;20035;-86
2021/07/29 05:16:09;;;;;;;2.22;1.25;;;19.80;63.80;;;;;;4974684;28;20026;-86
2021/07/29 05:18:36;;;;;;;2.15;1.42;;;19.80;64.50;;;;;;4959921;28;20046;-86
2021/07/29 05:21:07;;;;;;;2.38;1.25;;;19.80;63.80;;;;;;4976235;28;20026;-85
2021/07/29 05:23:34;;;;;;;1.95;1.15;;;19.80;63.90;;;;;;4959104;28;20034;-86
2021/07/29 05:26:00;;;;;;;1.83;1.15;;;19.80;63.90;;;;;;4958632;28;20423;-85
2021/07/29 05:28:26;;;;;;;1.25;0.90;;;19.80;63.90;;;;;;4942464;28;20116;-86
2021/07/29 05:30:53;;;;;;;2.88;1.30;;;19.80;64.00;;;;;;4959025;28;20027;-86
2021/07/29 05:33:19;;;;;;;2.47;1.42;;;19.80;64.00;;;;;;4958316;28;20041;-86
2021/07/29 05:35:44;;;;;;;2.15;1.10;;;19.80;64.00;;;;;;4959008;28;20014;-86
2021/07/29 05:38:10;;;;;;;2.70;1.20;;;19.80;64.00;;;;;;4975078;28;20030;-87
2021/07/29 05:40:37;;;;;;;1.63;1.10;;;19.80;64.00;;;;;;4958722;28;20388;-87
2021/07/29 05:43:03;;;;;;;2.30;1.20;;;19.80;64.00;;;;;;4958600;28;20081;-86
2021/07/29 05:45:29;;;;;;;1.55;1.17;;;19.80;64.10;;;;;;4974564;28;20027;-85
2021/07/29 05:47:58;;;;;;;2.30;1.20;;;19.80;64.10;;;;;;4958208;28;20468;-88
2021/07/29 05:50:24;;;;;;;1.90;1.50;;;19.80;64.10;;;;;;4942756;28;20062;-85
2021/07/29 05:52:50;;;;;;;1.48;1.30;;;19.80;64.10;;;;;;4926681;28;20042;-86
2021/07/29 05:55:16;;;;;;;2.03;1.25;;;19.80;64.20;;;;;;4958519;28;20439;-86
2021/07/29 05:57:42;;;;;;;1.50;1.10;;;19.80;64.20;;;;;;4942245;28;20027;-86
2021/07/29 06:00:08;;;;;;;3.10;1.25;;;19.80;64.20;;;;;;4958393;28;20039;-85
2021/07/29 06:02:35;;;;;;;1.30;1.13;;;19.80;64.20;;;;;;4975225;28;20085;-86
2021/07/29 06:05:01;;;;;;;3.08;1.13;;;19.80;64.20;;;;;;4974329;28;20098;-85
2021/07/29 06:07:28;;;;;;;1.73;1.13;;;19.80;64.30;;;;;;4974912;28;20066;-85
2021/07/29 06:09:54;;;;;;;3.20;1.38;;;19.90;64.30;;;;;;4959101;28;20031;-86
2021/07/29 06:12:24;;;;;;;2.13;1.17;;;19.90;64.30;;;;;;4958311;28;20023;-86
2021/07/29 06:14:54;;;;;;;1.75;1.00;;;19.90;64.30;;;;;;4974648;28;20031;-84
2021/07/29 06:17:25;;;;;;;2.88;1.30;;;19.90;64.40;;;;;;4958451;28;20026;-86
2021/07/29 06:19:51;;;;;;;2.63;1.55;;;19.90;64.40;;;;;;4958384;28;20031;-87
2021/07/29 06:22:16;;;;;;;2.33;1.17;;;19.90;65.00;;;;;;4959057;28;20042;-87
2021/07/29 06:24:42;;;;;;;3.83;1.48;;;19.90;64.40;;;;;;4973888;28;20031;-85
2021/07/29 06:27:08;;;;;;;2.35;1.25;;;19.90;64.40;;;;;;4973795;28;20506;-85
2021/07/29 06:29:34;;;;;;;1.77;1.20;;;19.90;64.40;;;;;;4961140;28;20027;-84
2021/07/29 06:32:00;;;;;;;2.17;1.33;;;19.90;64.40;;;;;;4961171;28;20023;-84
2021/07/29 06:34:26;;;;;;;2.42;1.40;;;19.90;64.40;;;;;;4977181;28;20050;-84
2021/07/29 06:36:51;;;;;;;2.75;1.30;;;19.90;64.40;;;;;;4961416;28;20102;-89
2021/07/29 06:39:17;;;;;;;2.45;1.40;;;20.00;64.40;;;;;;4977632;28;20078;-85
2021/07/29 06:41:43;;;;;;;3.33;1.75;;;20.00;64.40;;;;;;4961043;28;20050;-85
2021/07/29 06:44:09;;;;;;;2.35;1.30;;;20.00;64.40;;;;;;4960785;28;20030;-85
2021/07/29 06:46:37;;;;;;;1.98;1.25;;;20.00;65.10;;;;;;4961243;28;20117;-85
2021/07/29 06:49:03;;;;;;;2.40;1.13;;;20.00;64.40;;;;;;4961068;28;20480;-86
2021/07/29 06:51:29;;;;;;;2.53;1.20;;;20.00;64.40;;;;;;4977433;28;20031;-86
2021/07/29 06:53:55;;;;;;;3.08;1.27;;;20.00;64.40;;;;;;4961392;28;20022;-87
2021/07/29 06:56:21;;;;;;;3.33;1.42;;;20.00;64.40;;;;;;4977784;28;20054;-86
2021/07/29 06:58:59;;;;;;;1.25;1.05;;;20.00;64.40;;;;;;4977513;28;20031;-92
2021/07/29 07:01:31;;;;;;;2.60;1.33;;;20.10;64.40;;;;;;4961413;28;20035;-89
2021/07/29 07:03:59;;;;;;;1.55;1.27;;;20.10;64.40;;;;;;4977372;28;20031;-88
2021/07/29 07:06:27;;;;;;;2.38;1.30;;;20.10;64.30;;;;;;4961240;28;20025;-89
2021/07/29 07:09:01;;;;;;;2.42;1.60;;;20.10;64.40;;;;;;4962990;28;20376;-86
2021/07/29 07:11:36;;;;;;;3.03;1.67;;;20.10;64.30;;;;;;4977567;28;20038;-94
2021/07/29 07:14:24;;;;;;;2.47;1.30;;;20.10;64.40;;;;;;4945297;28;20118;-94
2021/07/29 07:17:05;;;;;;;1.88;1.10;;;20.10;64.50;;;;;;4969799;28;20019;-91
2021/07/29 07:20:08;;;;;;;;;;;;;;;;;;;;;
2021/07/29 07:23:37;;;;;;;;;;;;;;;;;;;;;
2021/07/29 07:27:04;;;;;;;2.25;1.17;;;20.10;64.40;;;;;;4971662;28;20039;-92
2021/07/29 07:29:36;;;;;;;1.52;1.30;;;20.10;64.20;;;;;;4957751;28;20053;-90
2021/07/29 07:33:11;;;;;;;2.28;1.23;;;20.20;64.30;;;;;;4961161;28;20038;-93
2021/07/29 07:35:54;;;;;;;2.88;1.40;;;20.20;64.30;;;;;;4956399;28;20070;-94
2021/07/29 07:39:11;;;;;;;2.85;1.55;;;20.20;64.40;;;;;;4968119;28;20057;-90
2021/07/29 07:41:36;;;;;;;1.58;1.20;;;20.20;64.30;;;;;;4962560;28;20038;-87
2021/07/29 07:44:02;;;;;;;3.22;1.27;;;20.30;64.10;;;;;;4961829;28;20089;-88
2021/07/29 07:46:30;;;;;;;3.75;1.60;;;20.30;64.20;;;;;;4976710;28;20045;-88
2021/07/29 07:48:58;;;;;;;3.05;1.50;;;20.30;64.20;;;;;;4960388;28;20027;-87
2021/07/29 07:51:28;;;;;;;3.08;1.35;;;20.40;64.20;;;;;;4976045;28;20031;-87
2021/07/29 07:53:54;;;;;;;3.50;1.40;;;20.40;64.10;;;;;;4960273;28;20034;-86
2021/07/29 07:56:21;;;;;;;2.28;1.27;;;20.40;64.10;;;;;;4960299;28;20035;-87
2021/07/29 07:58:47;;;;;;;2.03;1.50;;;20.40;64.00;;;;;;4960679;28;20030;-87
2021/07/29 08:01:14;;;;;;;2.85;1.48;;;20.40;63.90;;;;;;4959972;28;20034;-86
2021/07/29 08:03:40;;;;;;;2.70;1.30;;;20.50;63.90;;;;;;4960283;28;20035;-89
2021/07/29 08:06:06;;;;;;;1.38;1.10;;;20.50;63.90;;;;;;4976174;28;20518;-86
2021/07/29 08:08:32;;;;;;;3.50;1.63;;;20.60;63.90;;;;;;4960371;28;20043;-85
2021/07/29 08:10:58;;;;;;;2.78;1.33;;;20.60;63.80;;;;;;4960973;28;20037;-87
2021/07/29 08:13:24;;;;;;;2.78;1.35;;;20.60;63.70;;;;;;4960524;28;20111;-87
2021/07/29 08:15:50;;;;;;;3.08;1.30;;;20.70;63.70;;;;;;4959978;28;20500;-87
2021/07/29 08:18:16;;;;;;;2.85;1.20;;;20.70;63.60;;;;;;4960198;28;20031;-89
2021/07/29 08:20:44;;;;;;;3.00;1.40;;;20.80;63.50;;;;;;4943767;28;20117;-87
2021/07/29 08:23:10;;;;;;;2.38;1.30;;;20.80;63.50;;;;;;4959992;28;20019;-86
2021/07/29 08:25:36;;;;;;;5.45;1.75;;;20.80;63.40;;;;;;4959666;28;20031;-87
2021/07/29 08:28:02;;;;;;;2.38;1.45;;;20.90;63.40;;;;;;4959244;28;20042;-83
2021/07/29 08:30:28;;;;;;;3.58;1.80;;;20.90;63.30;;;;;;4960214;28;20042;-83
2021/07/29 08:32:54;;;;;;;3.35;1.55;;;21.00;63.20;;;;;;4958771;28;20022;-81
2021/07/29 08:35:20;;;;;;;1.85;1.30;;;21.00;63.10;;;;;;4974885;28;20066;-82
2021/07/29 08:37:49;;;;;;;1.88;1.20;;;21.10;63.10;;;;;;4959445;28;20027;-86
2021/07/29 08:40:19;;;;;;;2.33;1.35;;;21.10;62.90;;;;;;4959154;28;20492;-84
2021/07/29 08:42:46;;;;;;;2.78;1.45;;;21.20;62.90;;;;;;4975234;28;20117;-82
2021/07/29 08:45:12;;;;;;;2.53;1.35;;;21.20;62.80;;;;;;4958392;28;20525;-83
2021/07/29 08:47:41;;;;;;;3.15;1.50;;;21.30;62.60;;;;;;4942050;28;20137;-82
2021/07/29 08:50:07;;;;;;;2.85;1.52;;;21.30;62.50;;;;;;4973887;28;20029;-80
2021/07/29 08:52:34;;;;;;;3.58;1.48;;;21.40;62.40;;;;;;4957997;28;20459;-80
2021/07/29 08:55:00;;;;;;;2.78;1.50;;;21.40;62.30;;;;;;4958608;28;20042;-80
2021/07/29 08:57:31;;;;;;;2.90;1.15;;;21.50;62.30;;;;;;4975386;28;20042;-83
2021/07/29 09:00:00;;;;;;;2.17;1.30;;;21.60;62.20;;;;;;4974508;28;20121;-80
2021/07/29 09:02:28;;;;;;;4.25;1.65;;;21.60;62.10;;;;;;4957465;28;20030;-80
2021/07/29 09:05:18;;;;;;;3.20;1.50;;;21.70;62.00;;;;;;4975164;28;20086;-79
2021/07/29 09:08:01;;;;;;;2.80;1.45;;;21.70;62.00;;;;;;4969192;28;20058;-81
2021/07/29 09:10:27;;;;;;;3.25;1.60;;;21.80;61.70;;;;;;4958426;28;20031;-85
2021/07/29 09:13:08;;;;;;;2.25;1.15;;;21.90;61.70;;;;;;4958795;28;20026;-84
2021/07/29 09:15:34;;;;;;;3.15;1.30;;;21.90;61.80;;;;;;4974310;28;20034;-78
2021/07/29 09:18:01;;;;;;;2.90;1.20;;;22.00;61.60;;;;;;4957677;28;20034;-77
2021/07/29 09:20:26;;;;;;;2.53;1.40;;;22.00;61.60;;;;;;4973694;28;20039;-79
2021/07/29 09:22:53;;;;;;;1.75;1.20;;;22.10;61.60;;;;;;4957621;28;20042;-79
2021/07/29 09:25:23;;;;;;;2.47;1.20;;;22.20;61.60;;;;;;4957658;28;20034;-88
2021/07/29 09:27:50;;;;;;;2.17;1.38;;;22.20;61.50;;;;;;4957636;28;20042;-78
2021/07/29 09:30:28;;;;;;;2.25;1.40;;;22.30;61.50;;;;;;4958383;28;20105;-84
2021/07/29 09:33:05;;;;;;;1.83;1.35;;;22.30;61.50;;;;;;4974699;28;20122;-84
2021/07/29 09:35:42;;;;;;;3.35;1.42;;;22.30;61.30;;;;;;4959025;28;20117;-82
2021/07/29 09:38:18;;;;;;;2.58;1.25;;;22.40;61.30;;;;;;4973773;28;20145;-82
2021/07/29 09:40:55;;;;;;;2.90;1.38;;;22.50;61.20;;;;;;4975174;28;20089;-82
2021/07/29 09:43:26;;;;;;;2.47;1.10;;;22.50;61.20;;;;;;4973709;28;20093;-82
2021/07/29 09:45:54;;;;;;;1.02;0.93;;;22.60;61.10;;;;;;4957467;28;20039;-82
2021/07/29 09:48:22;;;;;;;1.20;1.02;;;22.60;60.90;;;;;;4957904;28;20452;-81
2021/07/29 09:50:50;;;;;;;3.78;1.30;;;22.70;60.90;;;;;;4957630;28;20034;-83
2021/07/29 09:53:15;;;;;;;3.47;1.27;;;22.70;60.80;;;;;;4957864;28;20090;-81
2021/07/29 09:55:41;;;;;;;2.63;1.17;;;22.80;60.80;;;;;;4957587;28;20472;-81
2021/07/29 09:58:08;;;;;;;3.45;1.20;;;22.80;61.30;;;;;;4975224;28;20101;-81
2021/07/29 10:00:36;;;;;;;2.47;1.13;;;22.90;60.50;;;;;;4957503;28;20114;-81
2021/07/29 10:03:07;;;;;;;2.60;1.02;;;23.00;60.50;;;;;;4958480;28;20472;-80
2021/07/29 10:06:00;;;;;;;1.83;0.98;;;23.00;60.30;;;;;;4961367;28;20023;-82
2021/07/29 10:08:43;;;;;;;2.40;1.23;;;23.00;60.30;;;;;;4959572;28;20407;-81
2021/07/29 10:11:15;;;;;;;3.88;1.25;;;23.10;60.20;;;;;;4978333;28;20038;-81
2021/07/29 10:13:41;;;;;;;2.33;1.20;;;23.10;60.10;;;;;;4977373;28;20065;-82
2021/07/29 10:16:08;;;;;;;2.80;1.20;;;23.20;60.00;;;;;;4961053;28;20116;-82
2021/07/29 10:18:57;;;;;;;1.75;0.95;;;23.20;60.00;;;;;;4977139;28;20046;-82
2021/07/29 10:21:35;;;;;;;2.85;1.10;;;23.30;60.10;;;;;;4955737;28;20038;-81
2021/07/29 10:24:02;;;;;;;3.78;1.33;;;23.30;59.90;;;;;;4978318;28;20027;-81
2021/07/29 10:26:30;;;;;;;2.35;1.10;;;23.40;59.80;;;;;;4976936;28;20031;-82
2021/07/29 10:29:18;;;;;;;2.38;1.25;;;23.50;59.80;;;;;;4960618;28;20039;-81
2021/07/29 10:32:08;;;;;;;2.72;1.55;;;23.50;59.80;;;;;;4976880;28;20062;-80
2021/07/29 10:34:34;;;;;;;5.78;1.40;;;23.50;59.70;;;;;;4960640;28;20034;-79
2021/07/29 10:37:08;;;;;;;2.75;1.13;;;23.60;59.40;;;;;;4976804;28;20073;-81
2021/07/29 10:40:00;;;;;;;2.15;1.00;;;23.60;59.40;;;;;;4977326;28;20074;-81
2021/07/29 10:42:27;;;;;;;2.20;1.13;;;23.60;59.40;;;;;;4960330;28;20038;-81
2021/07/29 10:44:53;;;;;;;2.13;1.20;;;23.70;59.20;;;;;;4960498;28;20456;-81
2021/07/29 10:47:36;;;;;;;2.45;1.20;;;23.70;59.10;;;;;;4960579;28;20038;-82
2021/07/29 10:50:02;;;;;;;2.60;1.20;;;23.80;59.00;;;;;;4960685;28;20054;-82
2021/07/29 10:52:29;;;;;;;3.05;1.33;;;23.80;58.80;;;;;;4976693;28;20478;-79
2021/07/29 10:54:56;;;;;;;3.10;1.20;;;23.80;58.70;;;;;;4977743;28;20030;-82
2021/07/29 10:57:23;;;;;;;2.28;1.30;;;23.80;58.60;;;;;;4977761;28;20546;-83
2021/07/29 10:59:52;;;;;;;3.60;1.35;;;23.80;58.50;;;;;;4960444;28;20070;-81
2021/07/29 11:02:52;;;;;;;1.65;1.13;;;23.90;58.60;;;;;;4959834;28;20094;-82
2021/07/29 11:05:25;;;;;;;4.70;1.33;;;23.90;58.70;;;;;;4978051;28;20058;-84
2021/07/29 11:07:51;;;;;;;2.80;1.40;;;23.90;58.60;;;;;;4976933;28;20043;-82
2021/07/29 11:10:21;;;;;;;2.55;1.20;;;23.90;58.70;;;;;;4976478;28;20035;-82
2021/07/29 11:12:48;;;;;;;2.35;1.35;;;23.90;58.70;;;;;;4977147;28;20058;-83
2021/07/29 11:15:15;;;;;;;2.50;1.38;;;23.90;58.70;;;;;;4976907;28;20042;-83
2021/07/29 11:17:41;;;;;;;2.25;1.30;;;23.90;58.80;;;;;;4960723;28;20042;-84
2021/07/29 11:20:08;;;;;;;2.42;1.20;;;23.90;58.90;;;;;;4978261;28;20035;-84
2021/07/29 11:22:47;;;;;;;3.03;1.23;;;23.90;59.00;;;;;;4960553;28;20544;-84
2021/07/29 11:25:14;;;;;;;2.97;1.48;;;23.90;59.10;;;;;;4961072;28;20094;-85
2021/07/29 11:27:39;;;;;;;1.75;1.00;;;23.90;59.10;;;;;;4960280;28;20030;-84
2021/07/29 11:30:06;;;;;;;2.72;1.52;;;23.90;59.20;;;;;;4976500;28;20078;-84
2021/07/29 11:32:42;;;;;;;2.72;1.50;;;23.90;59.20;;;;;;4960626;28;20153;-84
2021/07/29 11:35:09;;;;;;;2.75;1.40;;;23.90;59.30;;;;;;4977559;28;20129;-84
2021/07/29 11:37:45;;;;;;;2.80;1.38;;;23.90;59.20;;;;;;4976427;28;20034;-85
2021/07/29 11:40:30;;;;;;;3.53;1.70;;;23.90;59.30;;;;;;4960606;28;20058;-84
2021/07/29 11:42:56;;;;;;;2.65;1.27;;;23.90;59.40;;;;;;4960465;28;20034;-84
2021/07/29 11:45:39;;;;;;;3.03;1.25;;;23.90;59.20;;;;;;4976930;28;20038;-83
2021/07/29 11:48:22;;;;;;;2.42;1.42;;;24.00;59.30;;;;;;4960271;28;20043;-85
2021/07/29 11:50:49;;;;;;;3.42;1.63;;;24.00;59.20;;;;;;4959890;28;20035;-84
2021/07/29 11:53:16;;;;;;;2.38;1.17;;;24.00;59.10;;;;;;4960041;28;20522;-83
2021/07/29 11:55:52;;;;;;;2.60;1.58;;;24.00;59.00;;;;;;4959903;28;20063;-84
2021/07/29 11:58:18;;;;;;;2.72;1.30;;;24.00;59.00;;;;;;4959952;28;20039;-84
2021/07/29 12:00:46;;;;;;;2.30;1.27;;;24.00;59.00;;;;;;4959783;28;20056;-84
2021/07/29 12:03:34;;;;;;;2.58;1.42;;;24.00;59.00;;;;;;4961495;28;20034;-84
2021/07/29 12:06:01;;;;;;;2.13;1.30;;;24.00;59.10;;;;;;4979266;28;20089;-84
2021/07/29 12:08:28;;;;;;;2.45;1.35;;;24.00;59.00;;;;;;4959495;28;20102;-83
2021/07/29 12:10:56;;;;;;;3.40;1.20;;;24.00;58.90;;;;;;4959197;28;20517;-84
2021/07/29 12:13:23;;;;;;;2.47;1.30;;;24.00;58.90;;;;;;4976612;28;20027;-83
2021/07/29 12:15:57;;;;;;;3.58;1.60;;;24.00;58.90;;;;;;4975396;28;20383;-83
2021/07/29 12:18:24;;;;;;;2.53;1.20;;;24.00;58.90;;;;;;4976671;28;20391;-83
2021/07/29 12:20:52;;;;;;;3.58;1.30;;;24.00;58.80;;;;;;4976330;28;20027;-85
2021/07/29 12:23:19;;;;;;;3.42;1.35;;;24.00;58.80;;;;;;4959360;28;20031;-84
2021/07/29 12:25:46;;;;;;;3.25;1.38;;;24.00;58.80;;;;;;4958938;28;20403;-83
2021/07/29 12:28:13;;;;;;;2.15;1.20;;;24.00;58.80;;;;;;4959067;28;20042;-83
2021/07/29 12:30:42;;;;;;;3.08;1.60;;;24.00;58.80;;;;;;4976350;28;20033;-83
2021/07/29 12:33:19;;;;;;;1.85;1.08;;;24.10;58.90;;;;;;4958792;28;20031;-84
2021/07/29 12:36:01;;;;;;;1.95;1.20;;;24.00;58.80;;;;;;4976135;28;20027;-84
2021/07/29 12:38:38;;;;;;;3.53;1.30;;;24.00;58.90;;;;;;4959474;28;20412;-84
2021/07/29 12:41:05;;;;;;;2.67;1.25;;;24.00;59.00;;;;;;4974944;28;20041;-85
2021/07/29 12:43:32;;;;;;;3.85;1.38;;;24.00;58.90;;;;;;4958748;28;20031;-84
2021/07/29 12:46:01;;;;;;;2.65;1.20;;;24.10;59.00;;;;;;4975050;28;20054;-83
2021/07/29 12:48:31;;;;;;;1.67;1.17;;;24.10;59.00;;;;;;4958617;28;20041;-84
2021/07/29 12:50:58;;;;;;;3.15;1.30;;;24.00;58.80;;;;;;4958659;28;20118;-83
2021/07/29 12:53:24;;;;;;;3.05;1.10;;;24.00;58.80;;;;;;4975516;28;20379;-83
2021/07/29 12:55:52;;;;;;;3.53;1.33;;;24.10;58.90;;;;;;4958588;28;20357;-82
2021/07/29 12:58:20;;;;;;;2.95;1.20;;;24.00;58.80;;;;;;4958479;28;20030;-83
2021/07/29 13:00:47;;;;;;;3.78;1.45;;;24.10;58.80;;;;;;4958424;28;20041;-84